sensor_id;sensor_type;location;lat;lon;timestamp;temperature;humidity
39525;DHT22;25203;50.754;6.978;2022-07-23T00:01:47;18.70;99.90
39525;DHT22;25203;50.754;6.978;2022-07-23T00:03:48;18.70;99.90
39525;DHT22;25203;50.754;6.978;2022-07-23T00:05:49;18.70;99.90
39525;DHT22;25203;50.754;6.978;2022-07-23T00:07:49;18.60;99.90
39525;DHT22;25203;50.754;6.978;2022-07-23T00:09:50;18.60;99.90
39525;DHT22;25203;50.754;6.978;2022-07-23T00:11:51;18.60;99.90
39525;DHT22;25203;50.754;6.978;2022-07-23T00:13:51;18.60;99.90
39525;DHT22;25203;50.754;6.978;2022-07-23T00:15:52;18.60;99.90
39525;DHT22;25203;50.754;6.978;2022-07-23T00:17:52;18.60;99.90
39525;DHT22;25203;50.754;6.978;2022-07-23T00:19:53;18.50;99.90
39525;DHT22;25203;50.754;6.978;2022-07-23T00:21:54;18.50;99.90
39525;DHT22;25203;50.754;6.978;2022-07-23T00:23:55;18.50;99.90
39525;DHT22;25203;50.754;6.978;2022-07-23T00:25:55;18.50;99.90
39525;DHT22;25203;50.754;6.978;2022-07-23T00:27:57;18.50;99.90
39525;DHT22;25203;50.754;6.978;2022-07-23T00:29:58;18.50;99.90
39525;DHT22;25203;50.754;6.978;2022-07-23T00:31:58;18.50;99.90
39525;DHT22;25203;50.754;6.978;2022-07-23T00:33:59;18.50;99.90
39525;DHT22;25203;50.754;6.978;2022-07-23T00:36:01;18.50;99.90
39525;DHT22;25203;50.754;6.978;2022-07-23T00:38:03;18.40;99.90
39525;DHT22;25203;50.754;6.978;2022-07-23T00:40:05;18.50;99.90
39525;DHT22;25203;50.754;6.978;2022-07-23T00:42:06;18.40;99.90
39525;DHT22;25203;50.754;6.978;2022-07-23T00:44:20;18.40;99.90
39525;DHT22;25203;50.754;6.978;2022-07-23T00:46:21;18.40;99.90
39525;DHT22;25203;50.754;6.978;2022-07-23T00:48:22;18.40;99.90
39525;DHT22;25203;50.754;6.978;2022-07-23T00:50:24;18.40;99.90
39525;DHT22;25203;50.754;6.978;2022-07-23T00:52:25;18.40;99.90
39525;DHT22;25203;50.754;6.978;2022-07-23T00:54:26;18.40;99.90
39525;DHT22;25203;50.754;6.978;2022-07-23T00:56:27;18.30;99.90
39525;DHT22;25203;50.754;6.978;2022-07-23T00:58:28;18.30;99.90
39525;DHT22;25203;50.754;6.978;2022-07-23T01:00:29;18.30;99.90
39525;DHT22;25203;50.754;6.978;2022-07-23T01:02:30;18.30;99.90
39525;DHT22;25203;50.754;6.978;2022-07-23T01:04:30;18.30;99.90
39525;DHT22;25203;50.754;6.978;2022-07-23T01:06:35;18.20;99.90
39525;DHT22;25203;50.754;6.978;2022-07-23T01:08:36;18.20;99.90
39525;DHT22;25203;50.754;6.978;2022-07-23T01:10:37;18.10;99.90
39525;DHT22;25203;50.754;6.978;2022-07-23T01:12:38;18.10;99.90
39525;DHT22;25203;50.754;6.978;2022-07-23T01:14:39;18.00;99.90
39525;DHT22;25203;50.754;6.978;2022-07-23T01:16:41;18.00;99.90
39525;DHT22;25203;50.754;6.978;2022-07-23T01:18:41;18.00;99.90
39525;DHT22;25203;50.754;6.978;2022-07-23T01:20:42;18.00;99.90
39525;DHT22;25203;50.754;6.978;2022-07-23T01:22:43;17.90;99.90
39525;DHT22;25203;50.754;6.978;2022-07-23T01:24:44;17.90;99.90
39525;DHT22;25203;50.754;6.978;2022-07-23T01:26:46;17.90;99.90
39525;DHT22;25203;50.754;6.978;2022-07-23T01:28:47;17.80;99.90
39525;DHT22;25203;50.754;6.978;2022-07-23T01:30:48;17.80;99.90
39525;DHT22;25203;50.754;6.978;2022-07-23T01:32:48;17.80;99.90
39525;DHT22;25203;50.754;6.978;2022-07-23T01:34:49;17.70;99.90
39525;DHT22;25203;50.754;6.978;2022-07-23T01:36:50;17.70;99.90
39525;DHT22;25203;50.754;6.978;2022-07-23T01:38:51;17.60;99.90
39525;DHT22;25203;50.754;6.978;2022-07-23T01:40:51;17.60;99.90
39525;DHT22;25203;50.754;6.978;2022-07-23T01:42:52;17.60;99.90
39525;DHT22;25203;50.754;6.978;2022-07-23T01:44:53;17.60;99.90
39525;DHT22;25203;50.754;6.978;2022-07-23T01:46:53;17.60;99.90
39525;DHT22;25203;50.754;6.978;2022-07-23T01:48:55;17.50;99.90
39525;DHT22;25203;50.754;6.978;2022-07-23T01:50:56;17.50;99.90
39525;DHT22;25203;50.754;6.978;2022-07-23T01:52:56;17.60;99.90
39525;DHT22;25203;50.754;6.978;2022-07-23T01:54:57;17.50;99.90
39525;DHT22;25203;50.754;6.978;2022-07-23T01:56:58;17.50;99.90
39525;DHT22;25203;50.754;6.978;2022-07-23T01:58:59;17.50;99.90
39525;DHT22;25203;50.754;6.978;2022-07-23T02:01:00;17.50;99.90
39525;DHT22;25203;50.754;6.978;2022-07-23T02:03:01;17.50;99.90
39525;DHT22;25203;50.754;6.978;2022-07-23T02:05:01;17.40;99.90
39525;DHT22;25203;50.754;6.978;2022-07-23T02:07:03;17.40;99.90
39525;DHT22;25203;50.754;6.978;2022-07-23T02:09:04;17.50;99.90
39525;DHT22;25203;50.754;6.978;2022-07-23T02:11:04;17.40;99.90
39525;DHT22;25203;50.754;6.978;2022-07-23T02:13:05;17.40;99.90
39525;DHT22;25203;50.754;6.978;2022-07-23T02:15:07;17.40;99.90
39525;DHT22;25203;50.754;6.978;2022-07-23T02:17:07;17.40;99.90
39525;DHT22;25203;50.754;6.978;2022-07-23T02:19:08;17.40;99.90
39525;DHT22;25203;50.754;6.978;2022-07-23T02:21:09;17.40;99.90
39525;DHT22;25203;50.754;6.978;2022-07-23T02:23:09;17.40;99.90
39525;DHT22;25203;50.754;6.978;2022-07-23T02:25:10;17.40;99.90
39525;DHT22;25203;50.754;6.978;2022-07-23T02:27:10;17.40;99.90
39525;DHT22;25203;50.754;6.978;2022-07-23T02:29:11;17.40;99.90
39525;DHT22;25203;50.754;6.978;2022-07-23T02:31:12;17.40;99.90
39525;DHT22;25203;50.754;6.978;2022-07-23T02:33:12;17.40;99.90
39525;DHT22;25203;50.754;6.978;2022-07-23T02:35:13;17.30;99.90
39525;DHT22;25203;50.754;6.978;2022-07-23T02:37:14;17.30;99.90
39525;DHT22;25203;50.754;6.978;2022-07-23T02:39:14;17.30;99.90
39525;DHT22;25203;50.754;6.978;2022-07-23T02:41:15;17.20;99.90
39525;DHT22;25203;50.754;6.978;2022-07-23T02:43:16;17.20;99.90
39525;DHT22;25203;50.754;6.978;2022-07-23T02:45:16;17.20;99.90
39525;DHT22;25203;50.754;6.978;2022-07-23T02:47:17;17.20;99.90
39525;DHT22;25203;50.754;6.978;2022-07-23T02:49:17;17.20;99.90
39525;DHT22;25203;50.754;6.978;2022-07-23T02:51:18;17.20;99.90
39525;DHT22;25203;50.754;6.978;2022-07-23T02:53:19;17.10;99.90
39525;DHT22;25203;50.754;6.978;2022-07-23T02:55:19;17.10;99.90
39525;DHT22;25203;50.754;6.978;2022-07-23T02:57:20;17.10;99.90
39525;DHT22;25203;50.754;6.978;2022-07-23T02:59:20;17.10;99.90
39525;DHT22;25203;50.754;6.978;2022-07-23T03:01:21;17.10;99.90
39525;DHT22;25203;50.754;6.978;2022-07-23T03:03:21;17.00;99.90
39525;DHT22;25203;50.754;6.978;2022-07-23T03:05:22;17.00;99.90
39525;DHT22;25203;50.754;6.978;2022-07-23T03:07:23;16.90;99.90
39525;DHT22;25203;50.754;6.978;2022-07-23T03:09:23;16.90;99.90
39525;DHT22;25203;50.754;6.978;2022-07-23T03:11:24;16.90;99.90
39525;DHT22;25203;50.754;6.978;2022-07-23T03:13:25;16.80;99.90
39525;DHT22;25203;50.754;6.978;2022-07-23T03:15:25;16.80;99.90
39525;DHT22;25203;50.754;6.978;2022-07-23T03:17:26;16.80;99.90
39525;DHT22;25203;50.754;6.978;2022-07-23T03:19:27;16.80;99.90
39525;DHT22;25203;50.754;6.978;2022-07-23T03:21:27;16.70;99.90
39525;DHT22;25203;50.754;6.978;2022-07-23T03:23:28;16.70;99.90
39525;DHT22;25203;50.754;6.978;2022-07-23T03:25:29;16.70;99.90
39525;DHT22;25203;50.754;6.978;2022-07-23T03:27:30;16.60;99.90
39525;DHT22;25203;50.754;6.978;2022-07-23T03:29:30;16.50;99.90
39525;DHT22;25203;50.754;6.978;2022-07-23T03:31:33;16.50;99.90
39525;DHT22;25203;50.754;6.978;2022-07-23T03:33:33;16.40;99.90
39525;DHT22;25203;50.754;6.978;2022-07-23T03:35:34;16.30;99.90
39525;DHT22;25203;50.754;6.978;2022-07-23T03:37:35;16.10;99.90
39525;DHT22;25203;50.754;6.978;2022-07-23T03:39:35;16.00;99.90
39525;DHT22;25203;50.754;6.978;2022-07-23T03:41:36;16.00;99.90
39525;DHT22;25203;50.754;6.978;2022-07-23T03:43:37;15.90;99.90
39525;DHT22;25203;50.754;6.978;2022-07-23T03:45:37;15.90;99.90
39525;DHT22;25203;50.754;6.978;2022-07-23T03:47:38;15.80;99.90
39525;DHT22;25203;50.754;6.978;2022-07-23T03:49:39;15.70;99.90
39525;DHT22;25203;50.754;6.978;2022-07-23T03:51:40;15.70;99.90
39525;DHT22;25203;50.754;6.978;2022-07-23T03:53:40;15.70;99.90
39525;DHT22;25203;50.754;6.978;2022-07-23T03:55:41;15.70;99.90
39525;DHT22;25203;50.754;6.978;2022-07-23T03:57:42;15.60;99.90
39525;DHT22;25203;50.754;6.978;2022-07-23T03:59:43;15.60;99.90
39525;DHT22;25203;50.754;6.978;2022-07-23T04:01:44;15.60;99.90
39525;DHT22;25203;50.754;6.978;2022-07-23T04:03:44;15.60;99.90
39525;DHT22;25203;50.754;6.978;2022-07-23T04:05:46;15.60;99.90
39525;DHT22;25203;50.754;6.978;2022-07-23T04:07:47;15.60;99.90
39525;DHT22;25203;50.754;6.978;2022-07-23T04:09:48;15.60;99.90
39525;DHT22;25203;50.754;6.978;2022-07-23T04:11:48;15.60;99.90
39525;DHT22;25203;50.754;6.978;2022-07-23T04:13:49;15.60;99.90
39525;DHT22;25203;50.754;6.978;2022-07-23T04:15:50;15.60;99.90
39525;DHT22;25203;50.754;6.978;2022-07-23T04:17:51;15.70;99.90
39525;DHT22;25203;50.754;6.978;2022-07-23T04:19:51;15.70;99.90
39525;DHT22;25203;50.754;6.978;2022-07-23T04:21:52;15.70;99.90
39525;DHT22;25203;50.754;6.978;2022-07-23T04:23:53;15.70;99.90
39525;DHT22;25203;50.754;6.978;2022-07-23T04:25:54;15.70;99.90
39525;DHT22;25203;50.754;6.978;2022-07-23T04:27:54;15.70;99.90
39525;DHT22;25203;50.754;6.978;2022-07-23T04:29:55;15.70;99.90
39525;DHT22;25203;50.754;6.978;2022-07-23T04:31:55;15.70;99.90
39525;DHT22;25203;50.754;6.978;2022-07-23T04:33:56;15.70;99.90
39525;DHT22;25203;50.754;6.978;2022-07-23T04:35:57;15.70;99.90
39525;DHT22;25203;50.754;6.978;2022-07-23T04:37:57;15.70;99.90
39525;DHT22;25203;50.754;6.978;2022-07-23T04:39:58;15.70;99.90
39525;DHT22;25203;50.754;6.978;2022-07-23T04:41:58;15.70;99.90
39525;DHT22;25203;50.754;6.978;2022-07-23T04:43:59;15.70;99.90
39525;DHT22;25203;50.754;6.978;2022-07-23T04:46:00;15.70;99.90
39525;DHT22;25203;50.754;6.978;2022-07-23T04:48:01;15.70;99.90
39525;DHT22;25203;50.754;6.978;2022-07-23T04:50:01;15.80;99.90
39525;DHT22;25203;50.754;6.978;2022-07-23T04:52:02;15.80;99.90
39525;DHT22;25203;50.754;6.978;2022-07-23T04:54:03;15.80;99.90
39525;DHT22;25203;50.754;6.978;2022-07-23T04:56:04;15.90;99.90
39525;DHT22;25203;50.754;6.978;2022-07-23T04:58:05;15.90;99.90
39525;DHT22;25203;50.754;6.978;2022-07-23T05:00:06;16.00;99.90
39525;DHT22;25203;50.754;6.978;2022-07-23T05:02:07;16.00;99.90
39525;DHT22;25203;50.754;6.978;2022-07-23T05:04:08;16.10;99.90
39525;DHT22;25203;50.754;6.978;2022-07-23T05:06:09;16.10;99.90
39525;DHT22;25203;50.754;6.978;2022-07-23T05:08:09;16.30;99.90
39525;DHT22;25203;50.754;6.978;2022-07-23T05:10:10;16.30;99.90
39525;DHT22;25203;50.754;6.978;2022-07-23T05:12:11;16.40;99.90
39525;DHT22;25203;50.754;6.978;2022-07-23T05:14:11;16.50;99.90
39525;DHT22;25203;50.754;6.978;2022-07-23T05:16:12;16.60;99.90
39525;DHT22;25203;50.754;6.978;2022-07-23T05:18:13;16.70;99.90
39525;DHT22;25203;50.754;6.978;2022-07-23T05:20:14;16.80;99.90
39525;DHT22;25203;50.754;6.978;2022-07-23T05:22:14;16.90;99.90
39525;DHT22;25203;50.754;6.978;2022-07-23T05:24:15;17.00;99.90
39525;DHT22;25203;50.754;6.978;2022-07-23T05:26:16;17.20;99.90
39525;DHT22;25203;50.754;6.978;2022-07-23T05:28:16;17.40;99.90
39525;DHT22;25203;50.754;6.978;2022-07-23T05:30:17;17.70;99.90
39525;DHT22;25203;50.754;6.978;2022-07-23T05:32:18;17.90;99.90
39525;DHT22;25203;50.754;6.978;2022-07-23T05:34:18;18.00;99.90
39525;DHT22;25203;50.754;6.978;2022-07-23T05:36:19;18.20;99.90
39525;DHT22;25203;50.754;6.978;2022-07-23T05:38:20;18.20;99.90
39525;DHT22;25203;50.754;6.978;2022-07-23T05:40:20;18.30;99.90
39525;DHT22;25203;50.754;6.978;2022-07-23T05:42:21;18.30;99.90
39525;DHT22;25203;50.754;6.978;2022-07-23T05:44:21;18.30;99.90
39525;DHT22;25203;50.754;6.978;2022-07-23T05:46:22;18.30;99.90
39525;DHT22;25203;50.754;6.978;2022-07-23T05:48:23;18.30;99.90
39525;DHT22;25203;50.754;6.978;2022-07-23T05:50:23;18.30;99.90
39525;DHT22;25203;50.754;6.978;2022-07-23T05:52:24;18.30;99.90
39525;DHT22;25203;50.754;6.978;2022-07-23T05:54:24;18.30;99.90
39525;DHT22;25203;50.754;6.978;2022-07-23T05:56:25;18.30;99.90
39525;DHT22;25203;50.754;6.978;2022-07-23T05:58:26;18.40;99.90
39525;DHT22;25203;50.754;6.978;2022-07-23T06:00:27;18.40;99.90
39525;DHT22;25203;50.754;6.978;2022-07-23T06:02:27;18.40;99.90
39525;DHT22;25203;50.754;6.978;2022-07-23T06:04:29;18.40;99.90
39525;DHT22;25203;50.754;6.978;2022-07-23T06:06:29;18.40;99.90
39525;DHT22;25203;50.754;6.978;2022-07-23T06:08:30;18.40;99.90
39525;DHT22;25203;50.754;6.978;2022-07-23T06:10:31;18.30;99.90
39525;DHT22;25203;50.754;6.978;2022-07-23T06:12:31;18.30;99.90
39525;DHT22;25203;50.754;6.978;2022-07-23T06:14:32;18.20;99.90
39525;DHT22;25203;50.754;6.978;2022-07-23T06:16:32;18.20;99.90
39525;DHT22;25203;50.754;6.978;2022-07-23T06:18:33;18.30;99.90
39525;DHT22;25203;50.754;6.978;2022-07-23T06:20:34;18.40;99.90
39525;DHT22;25203;50.754;6.978;2022-07-23T06:22:35;18.50;99.90
39525;DHT22;25203;50.754;6.978;2022-07-23T06:24:36;18.70;99.90
39525;DHT22;25203;50.754;6.978;2022-07-23T06:26:36;18.90;99.90
39525;DHT22;25203;50.754;6.978;2022-07-23T06:28:37;19.10;99.90
39525;DHT22;25203;50.754;6.978;2022-07-23T06:30:38;19.30;99.90
39525;DHT22;25203;50.754;6.978;2022-07-23T06:32:38;19.40;99.90
39525;DHT22;25203;50.754;6.978;2022-07-23T06:34:39;19.50;99.90
39525;DHT22;25203;50.754;6.978;2022-07-23T06:36:39;19.60;99.90
39525;DHT22;25203;50.754;6.978;2022-07-23T06:38:40;19.70;99.90
39525;DHT22;25203;50.754;6.978;2022-07-23T06:40:41;19.80;99.90
39525;DHT22;25203;50.754;6.978;2022-07-23T06:42:41;19.90;99.90
39525;DHT22;25203;50.754;6.978;2022-07-23T06:44:42;19.90;99.90
39525;DHT22;25203;50.754;6.978;2022-07-23T06:46:42;19.70;99.90
39525;DHT22;25203;50.754;6.978;2022-07-23T06:48:43;19.70;99.90
39525;DHT22;25203;50.754;6.978;2022-07-23T06:50:44;19.80;99.90
39525;DHT22;25203;50.754;6.978;2022-07-23T06:52:44;19.90;99.90
39525;DHT22;25203;50.754;6.978;2022-07-23T06:54:45;20.00;99.90
39525;DHT22;25203;50.754;6.978;2022-07-23T06:56:45;20.10;99.90
39525;DHT22;25203;50.754;6.978;2022-07-23T06:58:46;20.20;99.90
39525;DHT22;25203;50.754;6.978;2022-07-23T07:00:47;20.30;99.90
39525;DHT22;25203;50.754;6.978;2022-07-23T07:02:47;20.40;99.90
39525;DHT22;25203;50.754;6.978;2022-07-23T07:04:49;20.40;99.90
39525;DHT22;25203;50.754;6.978;2022-07-23T07:06:49;20.40;99.90
39525;DHT22;25203;50.754;6.978;2022-07-23T07:08:50;20.40;99.90
39525;DHT22;25203;50.754;6.978;2022-07-23T07:10:51;20.60;99.90
39525;DHT22;25203;50.754;6.978;2022-07-23T07:12:51;20.60;99.90
39525;DHT22;25203;50.754;6.978;2022-07-23T07:14:52;20.70;99.90
39525;DHT22;25203;50.754;6.978;2022-07-23T07:16:53;20.80;99.90
39525;DHT22;25203;50.754;6.978;2022-07-23T07:18:54;20.90;99.90
39525;DHT22;25203;50.754;6.978;2022-07-23T07:20:55;20.90;99.90
39525;DHT22;25203;50.754;6.978;2022-07-23T07:22:56;21.00;99.90
39525;DHT22;25203;50.754;6.978;2022-07-23T07:24:57;21.10;99.90
39525;DHT22;25203;50.754;6.978;2022-07-23T07:26:58;21.10;99.90
39525;DHT22;25203;50.754;6.978;2022-07-23T07:28:58;21.20;99.90
39525;DHT22;25203;50.754;6.978;2022-07-23T07:30:59;21.40;99.90
39525;DHT22;25203;50.754;6.978;2022-07-23T07:33:00;21.50;99.90
39525;DHT22;25203;50.754;6.978;2022-07-23T07:35:00;21.60;99.90
39525;DHT22;25203;50.754;6.978;2022-07-23T07:37:01;21.80;99.90
39525;DHT22;25203;50.754;6.978;2022-07-23T07:39:01;22.00;99.90
39525;DHT22;25203;50.754;6.978;2022-07-23T07:41:02;22.20;99.90
39525;DHT22;25203;50.754;6.978;2022-07-23T07:43:03;22.40;99.90
39525;DHT22;25203;50.754;6.978;2022-07-23T07:45:04;22.40;99.90
39525;DHT22;25203;50.754;6.978;2022-07-23T07:47:04;22.60;99.90
39525;DHT22;25203;50.754;6.978;2022-07-23T07:49:05;23.00;99.90
39525;DHT22;25203;50.754;6.978;2022-07-23T07:51:06;23.30;99.30
39525;DHT22;25203;50.754;6.978;2022-07-23T07:53:06;23.40;96.40
39525;DHT22;25203;50.754;6.978;2022-07-23T07:55:08;23.70;95.70
39525;DHT22;25203;50.754;6.978;2022-07-23T07:57:09;23.80;94.60
39525;DHT22;25203;50.754;6.978;2022-07-23T07:59:10;24.00;94.90
39525;DHT22;25203;50.754;6.978;2022-07-23T08:01:11;24.00;93.70
39525;DHT22;25203;50.754;6.978;2022-07-23T08:03:12;23.90;93.90
39525;DHT22;25203;50.754;6.978;2022-07-23T08:05:13;23.90;93.60
39525;DHT22;25203;50.754;6.978;2022-07-23T08:07:14;23.70;93.60
39525;DHT22;25203;50.754;6.978;2022-07-23T08:09:15;23.60;93.90
39525;DHT22;25203;50.754;6.978;2022-07-23T08:11:16;24.30;94.40
39525;DHT22;25203;50.754;6.978;2022-07-23T08:13:16;25.40;93.00
39525;DHT22;25203;50.754;6.978;2022-07-23T08:15:19;26.40;91.10
39525;DHT22;25203;50.754;6.978;2022-07-23T08:17:19;27.30;89.40
39525;DHT22;25203;50.754;6.978;2022-07-23T08:19:20;27.50;83.70
39525;DHT22;25203;50.754;6.978;2022-07-23T08:21:21;27.10;81.60
39525;DHT22;25203;50.754;6.978;2022-07-23T08:23:21;26.10;82.40
39525;DHT22;25203;50.754;6.978;2022-07-23T08:25:26;25.60;86.50
39525;DHT22;25203;50.754;6.978;2022-07-23T08:27:27;25.90;90.20
39525;DHT22;25203;50.754;6.978;2022-07-23T08:29:28;26.80;88.50
39525;DHT22;25203;50.754;6.978;2022-07-23T08:31:28;27.70;82.80
39525;DHT22;25203;50.754;6.978;2022-07-23T08:33:29;28.90;80.10
39525;DHT22;25203;50.754;6.978;2022-07-23T08:35:32;29.80;76.90
39525;DHT22;25203;50.754;6.978;2022-07-23T08:37:34;30.60;73.20
39525;DHT22;25203;50.754;6.978;2022-07-23T08:39:34;30.40;67.70
39525;DHT22;25203;50.754;6.978;2022-07-23T08:41:35;29.60;68.00
39525;DHT22;25203;50.754;6.978;2022-07-23T08:43:36;28.70;69.90
39525;DHT22;25203;50.754;6.978;2022-07-23T08:45:42;27.80;72.00
39525;DHT22;25203;50.754;6.978;2022-07-23T08:47:43;27.90;74.70
39525;DHT22;25203;50.754;6.978;2022-07-23T08:49:45;28.50;73.40
39525;DHT22;25203;50.754;6.978;2022-07-23T08:51:46;28.30;71.70
39525;DHT22;25203;50.754;6.978;2022-07-23T08:53:48;27.70;72.50
39525;DHT22;25203;50.754;6.978;2022-07-23T08:55:51;27.20;74.80
39525;DHT22;25203;50.754;6.978;2022-07-23T08:57:53;26.80;76.70
39525;DHT22;25203;50.754;6.978;2022-07-23T08:59:53;26.50;79.80
39525;DHT22;25203;50.754;6.978;2022-07-23T09:01:54;26.10;80.20
39525;DHT22;25203;50.754;6.978;2022-07-23T09:03:55;26.10;80.30
39525;DHT22;25203;50.754;6.978;2022-07-23T09:05:57;26.10;80.60
39525;DHT22;25203;50.754;6.978;2022-07-23T09:08:11;26.10;80.10
39525;DHT22;25203;50.754;6.978;2022-07-23T09:10:12;26.00;79.80
39525;DHT22;25203;50.754;6.978;2022-07-23T09:12:13;25.90;80.50
39525;DHT22;25203;50.754;6.978;2022-07-23T09:14:14;25.70;80.90
39525;DHT22;25203;50.754;6.978;2022-07-23T09:16:33;25.60;80.90
39525;DHT22;25203;50.754;6.978;2022-07-23T09:18:40;25.50;80.00
39525;DHT22;25203;50.754;6.978;2022-07-23T09:20:43;25.60;82.00
39525;DHT22;25203;50.754;6.978;2022-07-23T09:22:47;25.80;81.90
39525;DHT22;25203;50.754;6.978;2022-07-23T09:27:08;26.10;81.90
39525;DHT22;25203;50.754;6.978;2022-07-23T09:29:17;26.20;81.50
39525;DHT22;25203;50.754;6.978;2022-07-23T09:31:18;26.30;81.50
39525;DHT22;25203;50.754;6.978;2022-07-23T09:33:19;26.40;80.20
39525;DHT22;25203;50.754;6.978;2022-07-23T09:38:01;26.40;80.40
39525;DHT22;25203;50.754;6.978;2022-07-23T09:40:07;26.00;79.60
39525;DHT22;25203;50.754;6.978;2022-07-23T09:42:22;26.10;81.10
39525;DHT22;25203;50.754;6.978;2022-07-23T09:44:23;26.10;81.10
39525;DHT22;25203;50.754;6.978;2022-07-23T09:46:25;26.30;81.40
39525;DHT22;25203;50.754;6.978;2022-07-23T09:48:29;26.10;80.00
39525;DHT22;25203;50.754;6.978;2022-07-23T09:50:30;26.20;81.70
39525;DHT22;25203;50.754;6.978;2022-07-23T09:52:33;26.30;81.20
39525;DHT22;25203;50.754;6.978;2022-07-23T09:54:36;26.30;79.80
39525;DHT22;25203;50.754;6.978;2022-07-23T09:56:37;26.40;79.60
39525;DHT22;25203;50.754;6.978;2022-07-23T09:58:40;26.50;78.50
39525;DHT22;25203;50.754;6.978;2022-07-23T10:00:49;26.60;76.70
39525;DHT22;25203;50.754;6.978;2022-07-23T10:02:51;26.70;78.20
39525;DHT22;25203;50.754;6.978;2022-07-23T10:04:53;26.80;78.50
39525;DHT22;25203;50.754;6.978;2022-07-23T10:07:14;26.90;75.50
39525;DHT22;25203;50.754;6.978;2022-07-23T10:09:28;26.90;71.70
39525;DHT22;25203;50.754;6.978;2022-07-23T10:11:30;27.00;72.80
39525;DHT22;25203;50.754;6.978;2022-07-23T10:13:32;27.00;73.70
39525;DHT22;25203;50.754;6.978;2022-07-23T10:15:51;26.60;72.80
39525;DHT22;25203;50.754;6.978;2022-07-23T10:17:52;26.60;76.70
39525;DHT22;25203;50.754;6.978;2022-07-23T10:19:52;26.60;75.80
39525;DHT22;25203;50.754;6.978;2022-07-23T10:21:58;26.80;75.50
39525;DHT22;25203;50.754;6.978;2022-07-23T10:35:55;27.20;67.70
39525;DHT22;25203;50.754;6.978;2022-07-23T10:38:13;27.30;68.60
39525;DHT22;25203;50.754;6.978;2022-07-23T10:40:20;27.50;68.60
39525;DHT22;25203;50.754;6.978;2022-07-23T10:42:33;27.60;68.50
39525;DHT22;25203;50.754;6.978;2022-07-23T10:44:39;27.70;68.20
39525;DHT22;25203;50.754;6.978;2022-07-23T10:46:58;27.70;66.20
39525;DHT22;25203;50.754;6.978;2022-07-23T10:51:24;27.90;64.30
39525;DHT22;25203;50.754;6.978;2022-07-23T10:53:28;27.90;64.30
39525;DHT22;25203;50.754;6.978;2022-07-23T10:57:29;27.70;64.60
39525;DHT22;25203;50.754;6.978;2022-07-23T10:59:30;27.80;64.30
39525;DHT22;25203;50.754;6.978;2022-07-23T11:01:38;27.90;65.60
39525;DHT22;25203;50.754;6.978;2022-07-23T11:03:38;28.00;65.90
39525;DHT22;25203;50.754;6.978;2022-07-23T11:05:44;28.00;64.40
39525;DHT22;25203;50.754;6.978;2022-07-23T11:10:04;27.70;64.10
39525;DHT22;25203;50.754;6.978;2022-07-23T11:17:00;28.00;62.00
39525;DHT22;25203;50.754;6.978;2022-07-23T11:19:04;28.30;63.10
39525;DHT22;25203;50.754;6.978;2022-07-23T11:23:21;28.20;62.90
39525;DHT22;25203;50.754;6.978;2022-07-23T11:27:43;28.50;62.70
39525;DHT22;25203;50.754;6.978;2022-07-23T11:29:46;28.70;62.60
39525;DHT22;25203;50.754;6.978;2022-07-23T11:36:49;29.30;59.80
39525;DHT22;25203;50.754;6.978;2022-07-23T11:38:50;29.50;58.80
39525;DHT22;25203;50.754;6.978;2022-07-23T11:40:55;29.60;59.70
39525;DHT22;25203;50.754;6.978;2022-07-23T11:43:07;29.50;58.10
39525;DHT22;25203;50.754;6.978;2022-07-23T11:45:09;29.10;59.20
39525;DHT22;25203;50.754;6.978;2022-07-23T11:47:10;28.80;59.40
39525;DHT22;25203;50.754;6.978;2022-07-23T11:49:14;29.10;60.00
39525;DHT22;25203;50.754;6.978;2022-07-23T11:51:25;29.70;60.30
39525;DHT22;25203;50.754;6.978;2022-07-23T11:53:31;30.40;58.10
39525;DHT22;25203;50.754;6.978;2022-07-23T11:55:32;31.40;56.00
39525;DHT22;25203;50.754;6.978;2022-07-23T11:57:35;32.30;55.70
39525;DHT22;25203;50.754;6.978;2022-07-23T11:59:36;33.30;53.00
39525;DHT22;25203;50.754;6.978;2022-07-23T12:02:05;34.20;52.90
39525;DHT22;25203;50.754;6.978;2022-07-23T12:04:06;34.50;51.30
39525;DHT22;25203;50.754;6.978;2022-07-23T12:06:07;35.30;52.30
39525;DHT22;25203;50.754;6.978;2022-07-23T12:08:09;35.80;51.70
39525;DHT22;25203;50.754;6.978;2022-07-23T12:10:19;36.00;49.70
39525;DHT22;25203;50.754;6.978;2022-07-23T12:12:21;36.30;50.30
39525;DHT22;25203;50.754;6.978;2022-07-23T12:14:21;36.60;49.00
39525;DHT22;25203;50.754;6.978;2022-07-23T12:16:22;36.70;48.50
39525;DHT22;25203;50.754;6.978;2022-07-23T12:18:25;36.70;49.30
39525;DHT22;25203;50.754;6.978;2022-07-23T12:20:31;36.70;47.90
39525;DHT22;25203;50.754;6.978;2022-07-23T12:22:40;37.00;48.50
39525;DHT22;25203;50.754;6.978;2022-07-23T12:24:57;36.80;47.20
39525;DHT22;25203;50.754;6.978;2022-07-23T12:27:11;36.80;47.90
39525;DHT22;25203;50.754;6.978;2022-07-23T12:29:11;36.50;48.10
39525;DHT22;25203;50.754;6.978;2022-07-23T12:31:12;36.40;48.00
39525;DHT22;25203;50.754;6.978;2022-07-23T12:33:29;36.10;47.50
39525;DHT22;25203;50.754;6.978;2022-07-23T12:37:40;36.30;46.90
39525;DHT22;25203;50.754;6.978;2022-07-23T12:39:41;36.00;47.00
39525;DHT22;25203;50.754;6.978;2022-07-23T12:41:52;35.60;47.30
39525;DHT22;25203;50.754;6.978;2022-07-23T12:43:52;35.00;48.10
39525;DHT22;25203;50.754;6.978;2022-07-23T12:48:06;34.50;48.90
39525;DHT22;25203;50.754;6.978;2022-07-23T12:50:07;34.20;48.10
39525;DHT22;25203;50.754;6.978;2022-07-23T12:52:17;33.40;47.90
39525;DHT22;25203;50.754;6.978;2022-07-23T12:54:17;33.00;48.20
39525;DHT22;25203;50.754;6.978;2022-07-23T12:58:20;32.00;49.20
39525;DHT22;25203;50.754;6.978;2022-07-23T13:00:21;32.00;49.80
39525;DHT22;25203;50.754;6.978;2022-07-23T13:02:21;31.90;50.70
39525;DHT22;25203;50.754;6.978;2022-07-23T13:04:23;31.80;50.60
39525;DHT22;25203;50.754;6.978;2022-07-23T13:06:24;31.50;51.00
39525;DHT22;25203;50.754;6.978;2022-07-23T13:08:27;31.00;51.40
39525;DHT22;25203;50.754;6.978;2022-07-23T13:10:28;30.80;52.60
39525;DHT22;25203;50.754;6.978;2022-07-23T13:12:29;30.70;53.00
39525;DHT22;25203;50.754;6.978;2022-07-23T13:14:29;30.50;52.20
39525;DHT22;25203;50.754;6.978;2022-07-23T13:16:31;30.40;53.30
39525;DHT22;25203;50.754;6.978;2022-07-23T13:18:32;30.40;52.90
39525;DHT22;25203;50.754;6.978;2022-07-23T13:20:32;30.40;53.60
39525;DHT22;25203;50.754;6.978;2022-07-23T13:22:34;30.50;53.40
39525;DHT22;25203;50.754;6.978;2022-07-23T13:24:35;30.50;53.10
39525;DHT22;25203;50.754;6.978;2022-07-23T13:26:36;30.60;52.70
39525;DHT22;25203;50.754;6.978;2022-07-23T13:28:37;30.60;52.80
39525;DHT22;25203;50.754;6.978;2022-07-23T13:30:38;30.60;52.80
39525;DHT22;25203;50.754;6.978;2022-07-23T13:32:39;30.50;52.70
39525;DHT22;25203;50.754;6.978;2022-07-23T13:34:40;30.20;53.40